createdAt,value
2023-04-03T00:00:35.941Z,32
2023-04-03T00:15:32.858Z,32
2023-04-03T00:30:32.634Z,32
2023-04-03T00:45:32.742Z,32
2023-04-03T01:00:33.079Z,32
2023-04-03T01:15:32.631Z,31
2023-04-03T01:30:33.264Z,31
2023-04-03T01:45:32.919Z,31
2023-04-03T02:00:33.132Z,31
2023-04-03T02:15:32.346Z,31
2023-04-03T02:30:32.660Z,31
2023-04-03T02:45:32.732Z,31
2023-04-03T03:00:32.916Z,31
2023-04-03T03:15:33.196Z,31
2023-04-03T03:30:33.103Z,31
2023-04-03T03:45:33.206Z,31
2023-04-03T04:00:32.264Z,31
2023-04-03T04:15:33.311Z,31
2023-04-03T04:30:32.647Z,31
2023-04-03T04:45:32.965Z,31
2023-04-03T05:00:35.359Z,31
2023-04-03T05:15:32.840Z,30
2023-04-03T05:30:33.675Z,30
2023-04-03T05:45:33.257Z,30
2023-04-03T06:00:35.974Z,30
2023-04-03T06:15:32.142Z,30
2023-04-03T06:30:37.417Z,30
2023-04-03T06:45:32.880Z,31
2023-04-03T07:00:36.708Z,31
2023-04-03T07:15:32.943Z,31
2023-04-03T07:30:37.354Z,31
2023-04-03T07:45:32.343Z,30
2023-04-03T08:00:35.825Z,30
2023-04-03T08:15:32.398Z,30
2023-04-03T08:30:34.297Z,30
2023-04-03T08:45:32.971Z,30
2023-04-03T09:00:36.341Z,30
2023-04-03T09:15:39.874Z,29
2023-04-03T09:30:34.841Z,29
2023-04-03T09:45:32.235Z,29
2023-04-03T10:00:35.675Z,29
2023-04-03T10:15:32.910Z,29
2023-04-03T10:30:34.409Z,29
2023-04-03T10:45:32.548Z,28
2023-04-03T11:00:34.825Z,28
2023-04-03T11:15:32.573Z,28
2023-04-03T11:30:36.478Z,28
2023-04-03T11:45:32.977Z,28
2023-04-03T12:00:39.550Z,28
2023-04-03T13:15:33.447Z,27
2023-04-03T13:30:36.980Z,26
2023-04-03T13:45:32.735Z,26
2023-04-03T14:00:38.379Z,26
2023-04-03T14:15:32.607Z,26
2023-04-03T14:30:36.618Z,25
2023-04-03T14:45:32.273Z,25
2023-04-03T15:00:38.171Z,25
2023-04-03T16:15:32.552Z,24
2023-04-03T16:30:34.294Z,24
2023-04-03T16:45:32.618Z,23
2023-04-03T17:00:39.971Z,23
2023-04-03T17:15:33.038Z,23
2023-04-03T17:30:35.085Z,23
2023-04-03T17:45:32.813Z,22
2023-04-03T18:00:37.172Z,22
2023-04-03T18:15:33.229Z,22
2023-04-03T18:30:35.515Z,22
2023-04-03T18:45:33.394Z,22
2023-04-03T19:00:36.992Z,22
2023-04-03T19:15:32.793Z,22
2023-04-03T19:30:34.162Z,22
2023-04-03T19:45:32.946Z,22
2023-04-03T20:00:36.017Z,22
2023-04-03T20:15:32.667Z,22
2023-04-03T20:30:32.564Z,22
2023-04-03T20:45:32.788Z,22
2023-04-03T21:00:35.914Z,22
2023-04-03T21:15:33.124Z,22
2023-04-03T21:30:33.769Z,22
2023-04-03T21:45:32.317Z,22
2023-04-03T22:00:34.282Z,22
2023-04-03T22:15:32.899Z,22
2023-04-03T22:30:32.899Z,22
2023-04-03T22:45:32.582Z,22
2023-04-03T23:00:33.253Z,22
2023-04-03T23:15:32.654Z,22
2023-04-03T23:30:32.688Z,22
2023-04-03T23:45:32.371Z,22
